.
WxDataArchive / Data Records for 2016-02-05
2016-02-04 February 2016 2016-02-06

Data Records for Friday, 05 February 2016

Time	Temp	Chill	HIndex	Humid	Dewpt	 Wind 	HiWind	WindDir	Rain 	Barom
-----	----	-----	------	-----	-----	------	------	-------	-----	-----
00:00	17.5	17.5	17.5	84	13.5	0	0	---	0.00	30.329 
00:05	17.3	17.3	17.3	85	13.6	0	0	---	0.00	30.329 
00:10	17.3	17.3	17.3	85	13.6	0	0	---	0.00	30.329 
00:15	17.2	17.2	17.2	85	13.5	0	0	---	0.00	30.330 
00:20	17.2	17.2	17.2	85	13.5	0	0	---	0.00	30.330 
00:25	17.2	17.2	17.2	85	13.5	0	0	---	0.00	30.330 
00:30	17.0	17.0	17.0	85	13.3	0	0	---	0.00	30.335 
00:35	17.0	17.0	17.0	85	13.3	0	0	---	0.00	30.335 
00:40	17.0	17.0	17.0	85	13.3	0	0	---	0.00	30.335 
00:45	16.9	16.9	16.9	85	13.2	0	0	---	0.00	30.329 
00:50	16.9	16.9	16.9	85	13.2	0	0	---	0.00	30.329 
00:55	16.9	16.9	16.9	85	13.2	0	0	---	0.00	30.329 
01:00	16.9	16.9	16.9	85	13.2	0	0	---	0.00	30.332 
01:05	16.7	16.7	16.7	85	13.0	0	0	---	0.00	30.332 
01:10	16.7	16.7	16.7	86	13.3	0	0	---	0.00	30.332 
01:15	16.7	16.7	16.7	86	13.3	0	0	---	0.00	30.331 
01:20	16.5	16.5	16.5	86	13.1	0	0	---	0.00	30.331 
01:25	16.5	16.5	16.5	86	13.1	0	0	---	0.00	30.331 
01:30	16.5	16.5	16.5	86	13.1	0	0	---	0.00	30.331 
01:35	16.5	16.5	16.5	86	13.1	0	0	---	0.00	30.331 
01:40	16.4	16.4	16.4	86	13.0	0	0	---	0.00	30.331 
01:45	16.4	16.4	16.4	86	13.0	0	0	---	0.00	30.330 
01:50	16.2	16.2	16.2	86	12.8	0	0	---	0.00	30.330 
01:55	16.2	16.2	16.2	86	12.8	0	0	---	0.00	30.330 
02:00	16.1	16.1	16.1	86	12.7	0	0	---	0.00	30.330 
02:05	16.1	16.1	16.1	86	12.7	0	0	---	0.00	30.330 
02:10	15.9	15.9	15.9	86	12.5	0	0	---	0.00	30.330 
02:15	15.9	15.9	15.9	87	12.7	0	0	---	0.00	30.331 
02:20	16.1	16.1	16.1	87	12.9	0	0	---	0.00	30.331 
02:25	16.1	16.1	16.1	87	12.9	0	0	---	0.00	30.331 
02:30	16.1	16.1	16.1	87	12.9	0	0	---	0.00	30.337 
02:35	16.1	16.1	16.1	87	12.9	0	0	---	0.00	30.337 
02:40	15.9	15.9	15.9	87	12.7	0	0	---	0.00	30.337 
02:45	15.9	15.9	15.9	87	12.7	0	0	---	0.00	30.343 
02:50	15.9	15.9	15.9	87	12.7	0	0	---	0.00	30.343 
02:55	15.9	15.9	15.9	87	12.7	0	0	---	0.00	30.343 
03:00	15.9	15.9	15.9	87	12.7	0	0	---	0.00	30.343 
03:05	15.7	15.7	15.7	87	12.5	0	0	---	0.00	30.343 
03:10	15.7	15.7	15.7	87	12.5	0	0	---	0.00	30.343 
03:15	15.6	15.6	15.6	87	12.4	0	0	---	0.00	30.344 
03:20	15.6	15.6	15.6	87	12.4	0	0	---	0.00	30.344 
03:25	15.6	15.6	15.6	87	12.4	0	0	---	0.00	30.344 
03:30	15.6	15.6	15.6	87	12.4	0	0	---	0.00	30.343 
03:35	15.6	15.6	15.6	87	12.4	0	0	---	0.00	30.343 
03:40	15.9	15.9	15.9	88	13.0	0	0	---	0.00	30.343 
03:45	16.4	16.4	16.4	88	13.5	0	0	---	0.00	30.344 
03:50	16.7	16.7	16.7	88	13.8	0	0	---	0.00	30.344 
03:55	17.0	17.0	17.0	88	14.1	0	0	---	0.00	30.344 
04:00	17.5	17.5	17.5	89	14.8	0	0	---	0.00	30.341 
04:05	18.0	18.0	18.0	89	15.3	0	0	---	0.00	30.341 
04:10	18.6	18.6	18.6	89	15.9	0	0	---	0.00	30.341 
04:15	19.2	19.2	19.2	89	16.5	0	1	292	0.00	30.332 
04:20	19.7	19.7	19.7	89	17.0	0	0	---	0.00	30.332 
04:25	20.2	20.2	20.2	90	17.7	0	0	---	0.00	30.332 
04:30	20.6	20.6	20.6	90	18.1	0	1	292	0.00	30.335 
04:35	21.0	21.0	21.0	90	18.5	0	0	---	0.00	30.335 
04:40	21.3	21.3	21.3	89	18.6	0	0	---	0.00	30.335 
04:45	21.6	21.6	21.6	89	18.9	0	0	---	0.00	30.334 
04:50	21.8	21.8	21.8	89	19.1	0	1	292	0.00	30.334 
04:55	21.9	21.9	21.9	89	19.2	0	0	---	0.00	30.334 
05:00	22.1	22.1	22.1	89	19.4	0	0	---	0.00	30.333 
05:05	22.2	22.2	22.2	89	19.5	0	0	---	0.00	30.333 
05:10	22.4	22.4	22.4	89	19.7	0	0	---	0.00	30.333 
05:15	22.5	22.5	22.5	88	19.5	0	0	---	0.00	30.336 
05:20	22.7	22.7	22.7	88	19.7	0	0	---	0.00	30.336 
05:25	22.9	22.9	22.9	88	19.9	0	0	---	0.00	30.336 
05:30	22.9	22.9	22.9	88	19.9	0	0	---	0.00	30.333 
05:35	22.9	22.9	22.9	88	19.9	0	0	---	0.00	30.333 
05:40	22.7	22.7	22.7	88	19.7	0	0	---	0.00	30.333 
05:45	22.5	22.5	22.5	87	19.2	0	0	---	0.00	30.335 
05:50	22.4	22.4	22.4	87	19.1	0	0	---	0.00	30.335 
05:55	22.1	22.1	22.1	87	18.8	0	0	---	0.00	30.335 
06:00	21.9	21.9	21.9	87	18.6	0	0	---	0.00	30.342 
06:05	21.6	21.6	21.6	87	18.3	0	0	---	0.00	30.342 
06:10	21.6	21.6	21.6	87	18.3	0	0	---	0.00	30.342 
06:15	21.4	21.4	21.4	87	18.1	0	0	---	0.00	30.349 
06:20	21.3	21.3	21.3	87	18.0	0	0	---	0.00	30.349 
06:25	21.1	21.1	21.1	87	17.8	0	0	---	0.00	30.349 
06:30	21.0	21.0	21.0	87	17.8	0	0	---	0.00	30.352 
06:35	20.8	20.8	20.8	86	17.3	0	0	---	0.00	30.352 
06:40	20.6	20.6	20.6	86	17.1	0	0	---	0.00	30.352 
06:45	20.6	20.6	20.6	87	17.4	0	0	---	0.00	30.356 
06:50	20.6	20.6	20.6	87	17.4	0	0	---	0.00	30.356 
06:55	20.5	20.5	20.5	87	17.3	0	0	---	0.00	30.356 
07:00	20.5	20.5	20.5	87	17.3	0	0	---	0.00	30.359 
07:05	20.5	20.5	20.5	87	17.3	0	0	---	0.00	30.359 
07:10	20.5	20.5	20.5	87	17.3	0	0	---	0.00	30.359 
07:15	20.3	20.3	20.3	87	17.1	0	0	---	0.00	30.362 
07:20	20.3	20.3	20.3	87	17.1	0	0	---	0.00	30.362 
07:25	20.2	20.2	20.2	87	17.0	0	0	---	0.00	30.362 
07:30	20.2	20.2	20.2	87	17.0	0	0	---	0.00	30.362 
07:35	20.2	20.2	20.2	87	17.0	0	0	---	0.00	30.362 
07:40	20.0	20.0	20.0	87	16.8	0	0	---	0.00	30.362 
07:45	20.0	20.0	20.0	87	16.8	0	0	---	0.00	30.363 
07:50	20.0	20.0	20.0	87	16.8	0	0	---	0.00	30.363 
07:55	19.9	19.9	19.9	87	16.7	0	0	---	0.00	30.363 
08:00	19.9	19.9	19.9	88	16.9	0	0	---	0.00	30.363 
08:05	19.9	19.9	19.9	88	16.9	0	0	---	0.00	30.363 
08:10	19.9	19.9	19.9	88	16.9	0	0	---	0.00	30.363 
08:15	20.0	20.0	20.0	88	17.0	0	0	---	0.00	30.376 
08:20	20.0	20.0	20.0	88	17.0	0	0	---	0.00	30.376 
08:25	20.3	20.3	20.3	88	17.3	0	0	---	0.00	30.376 
08:30	20.8	20.8	20.8	89	18.1	0	0	---	0.00	30.375 
08:35	21.8	21.8	21.8	89	19.1	0	0	---	0.00	30.375 
08:40	22.5	22.5	22.5	89	19.8	0	0	---	0.00	30.375 
08:45	23.3	23.3	23.3	88	20.3	0	0	---	0.00	30.375 
08:50	24.1	24.1	24.1	87	20.8	0	2	292	0.00	30.375 
08:55	24.7	24.7	24.7	85	20.8	0	1	292	0.00	30.375 
09:00	25.4	25.4	25.4	84	21.3	0	1	292	0.00	30.373 
09:05	25.8	25.8	25.8	82	21.1	0	1	292	0.00	30.373 
09:10	26.1	26.1	26.1	81	21.1	0	1	292	0.00	30.373 
09:15	26.6	26.6	26.6	80	21.3	0	1	292	0.00	30.375 
09:20	26.7	26.7	26.7	79	21.1	0	1	292	0.00	30.375 
09:25	27.0	27.0	27.0	77	20.8	0	2	292	0.00	30.375 
09:30	27.2	27.2	27.2	77	21.0	0	1	292	0.00	30.378 
09:35	27.5	27.5	27.5	75	20.6	0	2	292	0.00	30.378 
09:40	27.8	27.8	27.8	74	20.6	0	1	292	0.00	30.378 
09:45	28.2	28.2	28.2	73	20.7	0	2	292	0.00	30.379 
09:50	28.7	28.7	28.7	72	20.8	0	2	292	0.00	30.379 
09:55	29.0	29.0	29.0	69	20.1	0	3	292	0.00	30.379 
10:00	29.3	29.3	29.3	68	20.1	0	2	292	0.00	30.373 
10:05	29.7	29.7	29.7	66	19.8	0	2	292	0.00	30.373 
10:10	30.1	30.1	30.1	65	19.8	0	2	270	0.00	30.373 
10:15	30.4	30.4	30.4	64	19.7	0	3	270	0.00	30.372 
10:20	30.6	30.6	30.6	63	19.5	0	2	270	0.00	30.372 
10:25	30.9	30.9	30.9	62	19.4	0	2	270	0.00	30.372 
10:30	31.2	31.2	31.2	61	19.3	1	3	270	0.00	30.371 
10:35	31.3	31.3	31.3	61	19.4	0	3	270	0.00	30.371 
10:40	31.5	31.5	31.5	61	19.6	0	3	270	0.00	30.371 
10:45	31.9	31.9	31.9	61	20.0	1	3	270	0.00	30.368 
10:50	32.1	32.1	32.1	60	19.8	0	2	270	0.00	30.368 
10:55	32.7	32.7	32.7	61	20.8	0	2	270	0.00	30.368 
11:00	33.1	33.1	33.1	60	20.7	1	3	292	0.00	30.367 
11:05	33.5	33.5	33.5	59	20.7	0	3	45	0.00	30.367 
11:10	33.7	33.7	33.7	58	20.5	0	1	45	0.00	30.367 
11:15	33.8	33.8	33.8	59	21.0	0	2	315	0.00	30.364 
11:20	34.1	34.1	34.1	59	21.3	1	4	90	0.00	30.364 
11:25	34.3	34.3	34.3	59	21.5	0	4	90	0.00	30.364 
11:30	34.4	34.4	34.4	58	21.2	0	2	135	0.00	30.365 
11:35	34.7	34.7	34.7	59	21.9	0	2	202	0.00	30.365 
11:40	34.9	34.9	34.9	57	21.2	0	2	292	0.00	30.365 
11:45	35.2	35.2	35.2	58	21.9	0	2	292	0.00	30.363 
11:50	35.3	35.3	35.3	57	21.6	1	4	292	0.00	30.363 
11:55	35.5	35.5	35.5	58	22.2	0	3	270	0.00	30.363 
12:00	35.6	35.6	35.6	56	21.5	0	3	270	0.00	30.351 
12:05	35.8	35.8	35.8	58	22.5	0	1	270	0.00	30.351 
12:10	36.2	36.2	36.2	57	22.5	1	4	270	0.00	30.351 
12:15	36.5	36.5	36.5	57	22.7	0	2	90	0.00	30.349 
12:20	36.5	36.5	36.5	57	22.7	0	1	0	0.00	30.349 
12:25	36.6	36.6	36.6	56	22.4	0	5	90	0.00	30.349 
12:30	36.8	36.8	36.8	57	23.0	0	3	22	0.00	30.338 
12:35	36.9	36.9	36.9	55	22.3	0	3	225	0.00	30.338 
12:40	37.2	37.2	37.2	57	23.4	0	2	225	0.00	30.338 
12:45	37.2	37.2	37.2	55	22.5	2	5	90	0.00	30.331 
12:50	36.9	36.9	36.9	57	23.1	2	4	90	0.00	30.331 
12:55	36.9	36.9	36.9	56	22.7	1	3	90	0.00	30.331 
13:00	37.0	37.0	37.0	57	23.2	1	4	90	0.00	30.322 
13:05	37.2	37.2	37.2	55	22.5	1	4	90	0.00	30.322 
13:10	37.3	37.3	37.3	57	23.5	1	3	90	0.00	30.322 
13:15	37.8	37.8	37.8	57	24.0	2	4	90	0.00	30.317 
13:20	37.8	37.8	37.8	56	23.5	1	4	90	0.00	30.317 
13:25	37.8	37.8	37.8	55	23.1	1	3	90	0.00	30.317 
13:30	38.0	38.0	38.0	55	23.3	0	4	90	0.00	30.316 
13:35	37.9	37.9	37.9	55	23.2	1	4	90	0.00	30.316 
13:40	37.9	37.9	37.9	55	23.2	1	4	90	0.00	30.316 
13:45	38.0	38.0	38.0	55	23.3	1	3	90	0.00	30.313 
13:50	38.2	38.2	38.2	54	23.0	1	3	90	0.00	30.313 
13:55	38.3	38.3	38.3	55	23.6	1	2	45	0.00	30.313 
14:00	38.2	38.2	38.2	55	23.5	1	4	248	0.00	30.309 
14:05	37.9	37.9	37.9	54	22.8	1	5	248	0.00	30.309 
14:10	37.6	37.6	37.6	54	22.5	1	4	248	0.00	30.309 
14:15	37.3	37.3	37.3	54	22.2	1	4	248	0.00	30.305 
14:20	37.2	37.2	37.2	56	23.0	0	3	248	0.00	30.305 
14:25	37.0	37.0	37.0	56	22.8	1	4	248	0.00	30.305 
14:30	37.0	37.0	37.0	57	23.2	0	3	248	0.00	30.304 
14:35	37.0	37.0	37.0	56	22.8	1	4	248	0.00	30.304 
14:40	37.2	37.2	37.2	56	23.0	1	4	248	0.00	30.304 
14:45	37.5	37.5	37.5	57	23.7	1	3	248	0.00	30.303 
14:50	38.0	38.0	38.0	56	23.7	1	3	248	0.00	30.303 
14:55	38.3	38.3	38.3	55	23.6	1	4	248	0.00	30.303 
15:00	38.2	38.2	38.2	56	23.9	0	3	248	0.00	30.303 
15:05	38.0	38.0	38.0	56	23.7	1	4	248	0.00	30.303 
15:10	38.0	38.0	38.0	56	23.7	1	5	248	0.00	30.303 
15:15	37.8	37.8	37.8	56	23.5	1	3	225	0.00	30.301 
15:20	37.6	37.6	37.6	57	23.8	0	1	225	0.00	30.301 
15:25	37.3	37.3	37.3	57	23.5	0	2	225	0.00	30.301 
15:30	37.0	37.0	37.0	58	23.6	0	3	248	0.00	30.305 
15:35	36.9	36.9	36.9	58	23.5	0	2	248	0.00	30.305 
15:40	36.5	36.5	36.5	60	24.0	1	4	270	0.00	30.305 
15:45	35.9	35.9	35.9	61	23.8	1	4	270	0.00	30.315 
15:50	35.5	35.5	35.5	62	23.8	1	5	248	0.00	30.315 
15:55	35.2	35.2	35.2	63	23.9	2	5	270	0.00	30.315 
16:00	35.0	35.0	35.0	64	24.1	2	5	270	0.00	30.319 
16:05	34.9	34.9	34.9	64	24.0	1	3	270	0.00	30.319 
16:10	34.9	34.9	34.9	65	24.3	1	4	270	0.00	30.319 
16:15	34.6	34.6	34.6	65	24.1	2	4	270	0.00	30.319 
16:20	34.3	34.3	34.3	65	23.8	2	5	248	0.00	30.319 
16:25	34.1	34.1	34.1	65	23.6	1	4	270	0.00	30.319 
16:30	33.8	33.8	33.8	66	23.7	2	4	270	0.00	30.323 
16:35	33.7	33.7	33.7	67	23.9	1	3	270	0.00	30.323 
16:40	33.7	33.7	33.7	68	24.3	1	3	270	0.00	30.323 
16:45	33.5	33.5	33.5	67	23.7	2	4	270	0.00	30.327 
16:50	33.4	33.4	33.4	68	24.0	0	2	270	0.00	30.327 
16:55	33.2	33.2	33.2	67	23.4	1	4	270	0.00	30.327 
17:00	33.2	33.2	33.2	67	23.4	0	1	248	0.00	30.332 
17:05	33.1	33.1	33.1	67	23.4	0	2	248	0.00	30.332 
17:10	33.1	33.1	33.1	67	23.4	0	2	248	0.00	30.332 
17:15	32.9	32.9	32.9	67	23.2	0	1	248	0.00	30.333 
17:20	32.9	32.9	32.9	66	22.8	0	2	248	0.00	30.333 
17:25	32.8	32.8	32.8	67	23.1	1	4	248	0.00	30.333 
17:30	32.7	32.7	32.7	67	23.0	1	4	248	0.00	30.335 
17:35	32.5	32.5	32.5	68	23.1	1	3	248	0.00	30.335 
17:40	32.4	32.4	32.4	67	22.7	3	5	248	0.00	30.335 
17:45	32.2	32.2	32.2	67	22.5	2	4	292	0.00	30.345 
17:50	31.9	31.9	31.9	65	21.5	2	3	248	0.00	30.345 
17:55	31.6	31.6	31.6	64	20.8	1	2	248	0.00	30.345 
18:00	31.5	31.5	31.5	63	20.4	1	3	248	0.00	30.348 
18:05	31.3	31.3	31.3	63	20.2	1	3	248	0.00	30.348 
18:10	31.2	31.2	31.2	63	20.1	0	3	248	0.00	30.348 
18:15	31.2	31.2	31.2	62	19.7	0	3	248	0.00	30.350 
18:20	31.0	31.0	31.0	62	19.5	0	1	248	0.00	30.350 
18:25	31.0	31.0	31.0	62	19.5	0	2	248	0.00	30.350 
18:30	31.0	31.0	31.0	62	19.5	0	2	248	0.00	30.351 
18:35	31.0	31.0	31.0	61	19.1	0	2	248	0.00	30.351 
18:40	31.0	31.0	31.0	62	19.5	0	2	248	0.00	30.351 
18:45	31.0	31.0	31.0	62	19.5	0	2	248	0.00	30.352 
18:50	30.9	30.9	30.9	63	19.8	0	2	248	0.00	30.352 
18:55	30.9	30.9	30.9	63	19.8	0	2	248	0.00	30.352 
19:00	30.9	30.9	30.9	64	20.2	0	3	248	0.00	30.356 
19:05	30.7	30.7	30.7	64	20.0	0	2	248	0.00	30.356 
19:10	30.7	30.7	30.7	65	20.3	0	2	248	0.00	30.356 
19:15	30.7	30.7	30.7	65	20.3	0	1	248	0.00	30.362 
19:20	30.7	30.7	30.7	66	20.7	0	2	248	0.00	30.362 
19:25	30.7	30.7	30.7	66	20.7	0	2	248	0.00	30.362 
19:30	30.7	30.7	30.7	67	21.1	0	4	248	0.00	30.365 
19:35	30.7	30.7	30.7	67	21.1	0	2	248	0.00	30.365 
19:40	30.7	30.7	30.7	68	21.4	0	2	248	0.00	30.365 
19:45	30.9	30.9	30.9	69	21.9	0	3	248	0.00	30.362 
19:50	30.9	30.9	30.9	69	21.9	0	3	248	0.00	30.362 
19:55	30.9	30.9	30.9	69	21.9	1	3	248	0.00	30.362 
20:00	31.0	31.0	31.0	69	22.0	0	2	248	0.00	30.363 
20:05	31.0	31.0	31.0	70	22.4	1	2	248	0.00	30.363 
20:10	31.0	31.0	31.0	70	22.4	0	2	248	0.00	30.363 
20:15	31.0	31.0	31.0	71	22.7	0	2	248	0.00	30.354 
20:20	31.0	31.0	31.0	71	22.7	1	4	248	0.00	30.354 
20:25	31.0	31.0	31.0	72	23.1	1	4	248	0.00	30.354 
20:30	30.9	30.9	30.9	73	23.3	0	2	248	0.00	30.352 
20:35	30.9	30.9	30.9	73	23.3	0	2	248	0.00	30.352 
20:40	30.9	30.9	30.9	75	23.9	1	3	248	0.00	30.352 
20:45	30.7	30.7	30.7	76	24.0	0	2	248	0.00	30.346 
20:50	30.7	30.7	30.7	77	24.4	0	4	248	0.00	30.346 
20:55	30.6	30.6	30.6	77	24.3	0	2	248	0.00	30.346 
21:00	30.6	30.6	30.6	78	24.6	0	2	248	0.00	30.344 
21:05	30.4	30.4	30.4	78	24.4	0	1	248	0.00	30.344 
21:10	30.4	30.4	30.4	79	24.7	0	1	248	0.00	30.344 
21:15	30.4	30.4	30.4	79	24.7	0	1	248	0.00	30.330 
21:20	30.4	30.4	30.4	80	25.0	0	2	248	0.00	30.330 
21:25	30.4	30.4	30.4	80	25.0	0	2	248	0.00	30.330 
21:30	30.4	30.4	30.4	80	25.0	0	1	248	0.00	30.326 
21:35	30.3	30.3	30.3	80	24.9	0	1	248	0.00	30.326 
21:40	30.3	30.3	30.3	81	25.2	0	1	248	0.00	30.326 
21:45	30.3	30.3	30.3	81	25.2	0	1	248	0.00	30.316 
21:50	30.3	30.3	30.3	81	25.2	0	0	---	0.00	30.316 
21:55	30.3	30.3	30.3	81	25.2	0	1	248	0.00	30.316 
22:00	30.3	30.3	30.3	81	25.2	0	1	248	0.00	30.324 
22:05	30.3	30.3	30.3	82	25.5	0	1	248	0.00	30.324 
22:10	30.1	30.1	30.1	82	25.3	0	1	248	0.00	30.324 
22:15	30.1	30.1	30.1	82	25.3	0	1	248	0.00	30.323 
22:20	30.1	30.1	30.1	82	25.3	0	1	248	0.00	30.323 
22:25	30.1	30.1	30.1	82	25.3	0	1	248	0.00	30.323 
22:30	30.1	30.1	30.1	83	25.6	0	0	---	0.00	30.325 
22:35	30.1	30.1	30.1	83	25.6	0	1	248	0.00	30.325 
22:40	30.1	30.1	30.1	83	25.6	0	1	248	0.00	30.325 
22:45	30.1	30.1	30.1	83	25.6	0	0	---	0.00	30.326 
22:50	30.1	30.1	30.1	83	25.6	0	1	248	0.00	30.326 
22:55	30.1	30.1	30.1	83	25.6	0	1	248	0.00	30.326 
23:00	30.1	30.1	30.1	83	25.6	0	1	248	0.00	30.325 
23:05	30.1	30.1	30.1	83	25.6	0	2	248	0.00	30.325 
23:10	30.1	30.1	30.1	83	25.6	0	1	248	0.00	30.325 
23:15	30.0	30.0	30.0	83	25.5	0	1	248	0.00	30.320 
23:20	30.0	30.0	30.0	83	25.5	0	2	248	0.00	30.320 
23:25	29.8	29.8	29.8	83	25.3	0	2	248	0.00	30.320 
23:30	29.7	29.7	29.7	83	25.2	0	1	248	0.00	30.314 
23:35	29.7	29.7	29.7	83	25.2	0	1	248	0.00	30.314 
23:40	29.5	29.5	29.5	83	25.0	0	1	248	0.00	30.314 
23:45	29.4	29.4	29.4	83	24.9	0	2	248	0.00	30.309 
23:50	29.3	29.3	29.3	83	24.8	0	1	248	0.00	30.309 
23:55	29.3	29.3	29.3	83	24.8	0	1	248	0.00	30.309 

CoCoRaHS
IN-AL-39
A2 Web Hosting
Creative Commons License
GoDaddy
search engine by freefind advanced

loaded 2018-11-20 06:10:30 • last modified 2010-11-18 10:43:29
Privacy PolicyDisclaimer
• wx.awcolley.com is powered by PmWiki v.2002016 •
• all content (unless otherwise noted) © 2018 A W Colley